createdAt,value
2023-01-19T00:00:54.115Z,98874.80
2023-01-19T00:03:27.425Z,98875.49
2023-01-19T00:05:54.374Z,98876.88
2023-01-19T00:08:21.234Z,98879.82
2023-01-19T00:10:52.438Z,98882.04
2023-01-19T00:13:19.438Z,98885.52
2023-01-19T00:15:46.480Z,98886.02
2023-01-19T00:18:13.455Z,98893.40
2023-01-19T00:20:40.506Z,98894.08
2023-01-19T00:23:08.978Z,98894.77
2023-01-19T00:25:41.880Z,98893.41
2023-01-19T00:28:13.924Z,98895.15
2023-01-19T00:30:41.709Z,98896.85
2023-01-19T00:33:09.988Z,98895.45
2023-01-19T00:35:36.909Z,98896.48
2023-01-19T00:38:03.876Z,98900.98
2023-01-19T00:40:30.791Z,98898.73
2023-01-19T00:42:58.331Z,98903.34
2023-01-19T00:45:26.174Z,98905.41
2023-01-19T00:47:56.437Z,98912.34
2023-01-19T00:50:23.886Z,98914.77
2023-01-19T00:52:52.718Z,98916.14
2023-01-19T00:55:19.923Z,98917.66
2023-01-19T00:57:47.118Z,98923.11
2023-01-19T01:00:37.140Z,98927.02
2023-01-19T01:03:04.497Z,98928.20
2023-01-19T01:05:31.864Z,98931.11
2023-01-19T01:07:58.799Z,98933.86
2023-01-19T01:10:28.517Z,98941.06
2023-01-19T01:12:58.129Z,98940.17
2023-01-19T01:15:29.458Z,98950.48
2023-01-19T01:17:56.520Z,98952.34
2023-01-19T01:20:27.227Z,98949.40
2023-01-19T01:22:55.933Z,98952.64
2023-01-19T01:25:26.214Z,98953.33
2023-01-19T01:27:54.068Z,98961.40
2023-01-19T01:30:21.013Z,98968.41
2023-01-19T01:32:48.504Z,98976.77
2023-01-19T01:35:16.349Z,98976.66
2023-01-19T01:37:43.627Z,98976.93
2023-01-19T01:40:13.745Z,98978.74
2023-01-19T01:42:41.902Z,98976.16
2023-01-19T01:45:35.368Z,98982.71
2023-01-19T01:48:28.155Z,98979.98
2023-01-19T01:51:20.500Z,98987.23
2023-01-19T01:53:59.737Z,98987.02
2023-01-19T01:56:33.680Z,98990.22
2023-01-19T01:59:05.628Z,98995.17
2023-01-19T02:01:51.185Z,98998.06
2023-01-19T02:04:18.431Z,98995.65
2023-01-19T02:07:05.620Z,98995.98
2023-01-19T02:09:54.669Z,98997.11
2023-01-19T02:12:41.689Z,99000.18
2023-01-19T02:15:17.662Z,99000.30
2023-01-19T02:17:44.847Z,98998.70
2023-01-19T02:20:12.796Z,99004.39
2023-01-19T02:22:49.331Z,99007.64
2023-01-19T02:25:18.791Z,99007.29
2023-01-19T02:27:46.453Z,99009.02
2023-01-19T02:30:16.059Z,99003.67
2023-01-19T02:32:43.515Z,99007.61
2023-01-19T02:35:12.480Z,99012.38
2023-01-19T02:37:41.762Z,99015.79
2023-01-19T02:40:19.221Z,99017.67
2023-01-19T02:42:50.254Z,99014.58
2023-01-19T02:45:21.319Z,99015.80
2023-01-19T02:47:51.578Z,99017.17
2023-01-19T02:50:56.911Z,99016.98
2023-01-19T02:53:29.888Z,99011.61
2023-01-19T02:56:07.428Z,99016.20
2023-01-19T02:58:49.877Z,99013.41
2023-01-19T03:01:45.000Z,99010.83
2023-01-19T03:04:27.076Z,99011.17
2023-01-19T03:07:43.173Z,99006.88
2023-01-19T03:10:16.920Z,99010.63
2023-01-19T03:12:53.061Z,99014.20
2023-01-19T03:15:27.112Z,99022.80
2023-01-19T03:17:57.080Z,99025.64
2023-01-19T03:20:25.173Z,99024.03
2023-01-19T03:22:59.814Z,99026.38
2023-01-19T03:25:30.903Z,99024.45
2023-01-19T03:27:57.871Z,99026.16
2023-01-19T03:30:28.907Z,99025.10
2023-01-19T03:33:02.895Z,99026.80
2023-01-19T03:35:33.028Z,99026.94
2023-01-19T03:38:03.290Z,99026.23
2023-01-19T03:40:32.850Z,99027.90
2023-01-19T03:43:02.249Z,99025.82
2023-01-19T03:45:33.091Z,99026.17
2023-01-19T03:47:59.991Z,99031.67
2023-01-19T03:50:29.789Z,99034.22
2023-01-19T03:53:12.165Z,99040.01
2023-01-19T03:55:41.936Z,99038.20
2023-01-19T03:58:09.727Z,99038.99
2023-01-19T04:00:36.642Z,99043.52
2023-01-19T04:03:05.020Z,99042.42
2023-01-19T04:05:33.053Z,99041.39
2023-01-19T04:08:00.190Z,99036.56
2023-01-19T04:10:27.053Z,99038.13
2023-01-19T04:12:58.904Z,99035.59
2023-01-19T04:15:27.115Z,99037.83
2023-01-19T04:17:54.417Z,99034.53
2023-01-19T04:20:21.223Z,99032.95
2023-01-19T04:22:49.164Z,99036.36
2023-01-19T04:25:16.169Z,99037.23
2023-01-19T04:27:43.025Z,99033.74
2023-01-19T04:30:10.955Z,99037.39
2023-01-19T04:32:37.813Z,99031.37
2023-01-19T04:35:04.985Z,99025.75
2023-01-19T04:37:31.853Z,99029.17
2023-01-19T04:39:58.741Z,99025.83
2023-01-19T04:42:27.831Z,99025.10
2023-01-19T04:44:54.702Z,99025.63
2023-01-19T04:47:21.716Z,99020.34
2023-01-19T04:49:48.607Z,99022.43
2023-01-19T04:52:15.423Z,99028.65
2023-01-19T04:54:42.381Z,99031.36
2023-01-19T04:57:09.256Z,99032.67
2023-01-19T04:59:36.154Z,99034.90
2023-01-19T05:02:02.998Z,99037.13
2023-01-19T05:04:29.853Z,99040.59
2023-01-19T05:06:57.858Z,99040.44
2023-01-19T05:09:25.622Z,99039.41
2023-01-19T05:11:52.422Z,99041.14
2023-01-19T05:14:20.020Z,99033.88
2023-01-19T05:16:46.845Z,99033.32
2023-01-19T05:19:13.680Z,99035.31
2023-01-19T05:21:40.647Z,99039.72
2023-01-19T05:24:08.226Z,99045.51
2023-01-19T05:26:35.059Z,99046.70
2023-01-19T05:29:02.091Z,99046.85
2023-01-19T05:31:28.988Z,99047.33
2023-01-19T05:33:55.870Z,99045.21
2023-01-19T05:36:22.864Z,99046.89
2023-01-19T05:38:49.876Z,99045.48
2023-01-19T05:41:17.527Z,99043.21
2023-01-19T05:43:44.321Z,99046.30
2023-01-19T05:46:11.418Z,99052.33
2023-01-19T05:48:38.622Z,99056.95
2023-01-19T05:51:06.586Z,99057.14
2023-01-19T05:53:33.528Z,99057.64
2023-01-19T05:56:02.693Z,99052.77
2023-01-19T05:58:29.481Z,99057.33
2023-01-19T06:00:56.983Z,99063.94
2023-01-19T06:03:23.872Z,99064.91
2023-01-19T06:05:50.673Z,99069.21
2023-01-19T06:08:18.004Z,99075.45
2023-01-19T06:10:44.845Z,99074.55
2023-01-19T06:13:11.720Z,99077.09
2023-01-19T06:15:39.149Z,99074.79
2023-01-19T06:18:05.988Z,99076.41
2023-01-19T06:20:33.414Z,99075.80
2023-01-19T06:23:00.675Z,99079.65
2023-01-19T06:25:27.900Z,99082.69
2023-01-19T06:27:54.800Z,99086.42
2023-01-19T06:30:21.708Z,99094.48
2023-01-19T06:32:48.587Z,99093.43
2023-01-19T06:35:15.667Z,99097.86
2023-01-19T06:37:42.597Z,99098.70
2023-01-19T06:40:12.917Z,99099.44
2023-01-19T06:42:40.758Z,99099.73
2023-01-19T06:45:09.543Z,99095.21
2023-01-19T06:47:37.174Z,99094.00
2023-01-19T06:50:04.458Z,99096.77
2023-01-19T06:52:31.327Z,99102.45
2023-01-19T06:54:58.163Z,99106.73
2023-01-19T06:57:25.491Z,99103.09
2023-01-19T06:59:52.523Z,99103.20
2023-01-19T07:02:26.142Z,99102.77
2023-01-19T07:04:56.281Z,99107.70
2023-01-19T07:07:23.183Z,99112.11
2023-01-19T07:09:49.977Z,99114.80
2023-01-19T07:12:22.289Z,99115.23
2023-01-19T07:14:49.229Z,99118.92
2023-01-19T07:17:16.170Z,99121.34
2023-01-19T07:19:43.103Z,99117.61
2023-01-19T07:22:09.924Z,99120.81
2023-01-19T07:24:37.539Z,99125.98
2023-01-19T07:27:05.018Z,99124.88
2023-01-19T07:29:31.869Z,99135.44
2023-01-19T07:31:58.753Z,99138.48
2023-01-19T07:34:25.778Z,99139.83
2023-01-19T07:36:52.620Z,99141.52
2023-01-19T07:39:19.439Z,99142.80
2023-01-19T07:41:48.384Z,99145.15
2023-01-19T07:44:15.267Z,99145.71
2023-01-19T07:46:42.872Z,99145.92
2023-01-19T07:49:09.952Z,99150.79
2023-01-19T07:51:36.902Z,99148.12
2023-01-19T07:54:03.868Z,99148.88
2023-01-19T07:56:33.602Z,99146.18
2023-01-19T07:59:01.714Z,99149.98
2023-01-19T08:01:29.300Z,99152.89
2023-01-19T08:03:56.343Z,99152.84
2023-01-19T08:06:29.727Z,99160.20
2023-01-19T08:08:56.680Z,99161.73
2023-01-19T08:11:23.893Z,99165.85
2023-01-19T08:13:50.740Z,99169.83
2023-01-19T08:16:17.632Z,99172.78
2023-01-19T08:18:44.690Z,99176.36
2023-01-19T08:21:11.581Z,99177.52
2023-01-19T08:23:38.538Z,99183.33
2023-01-19T08:26:26.960Z,99181.39
2023-01-19T08:28:54.204Z,99182.44
2023-01-19T08:31:24.476Z,99189.82
2023-01-19T08:33:52.250Z,99193.98
2023-01-19T08:36:20.782Z,99193.27
2023-01-19T08:38:47.650Z,99197.02
2023-01-19T08:41:18.008Z,99202.29
2023-01-19T08:43:45.508Z,99209.83
2023-01-19T08:46:16.509Z,99218.13
2023-01-19T08:48:53.029Z,99219.23
2023-01-19T08:51:20.887Z,99216.06
2023-01-19T08:53:48.138Z,99218.58
2023-01-19T08:56:15.270Z,99227.59
2023-01-19T08:58:44.358Z,99227.84
2023-01-19T09:01:22.212Z,99237.48
2023-01-19T09:03:49.240Z,99235.14
2023-01-19T09:06:18.022Z,99241.07
2023-01-19T09:08:46.125Z,99237.75
2023-01-19T09:11:16.724Z,99240.44
2023-01-19T09:13:43.880Z,99244.96
2023-01-19T09:16:12.761Z,99245.84
2023-01-19T09:18:40.004Z,99247.41
2023-01-19T09:21:08.077Z,99246.42
2023-01-19T09:23:35.603Z,99243.83
2023-01-19T09:26:04.594Z,99245.95
2023-01-19T09:28:31.619Z,99249.85
2023-01-19T09:30:58.948Z,99249.50
2023-01-19T09:33:26.043Z,99250.09
2023-01-19T09:35:52.881Z,99245.98
2023-01-19T09:38:20.872Z,99253.58
2023-01-19T09:40:51.305Z,99247.94
2023-01-19T09:43:21.296Z,99250.41
2023-01-19T09:45:53.558Z,99248.41
2023-01-19T09:48:26.491Z,99249.67
2023-01-19T09:50:57.774Z,99255.45
2023-01-19T09:53:45.136Z,99248.34
2023-01-19T09:56:14.674Z,99247.02
2023-01-19T09:58:42.236Z,99241.89
2023-01-19T10:01:28.560Z,99244.14
2023-01-19T10:04:19.339Z,99243.19
2023-01-19T10:06:48.522Z,99241.71
2023-01-19T10:09:24.444Z,99229.88
2023-01-19T10:12:08.065Z,99227.20
2023-01-19T10:15:11.265Z,99224.70
2023-01-19T10:18:06.758Z,99222.92
2023-01-19T10:20:43.861Z,99217.90
2023-01-19T10:23:24.639Z,99221.02
2023-01-19T10:25:52.800Z,99217.55
2023-01-19T10:28:24.263Z,99220.07
2023-01-19T10:30:53.707Z,99219.45
2023-01-19T10:33:20.698Z,99215.38
2023-01-19T10:35:50.223Z,99216.29
2023-01-19T10:38:21.546Z,99216.15
2023-01-19T10:40:58.926Z,99213.98
2023-01-19T10:43:34.913Z,99211.01
2023-01-19T10:46:16.849Z,99207.34
2023-01-19T10:48:47.409Z,99209.11
2023-01-19T10:51:14.883Z,99210.19
2023-01-19T10:53:55.524Z,99217.33
2023-01-19T10:56:36.206Z,99217.45
2023-01-19T10:59:06.581Z,99216.89
2023-01-19T11:01:36.539Z,99216.15
2023-01-19T11:04:22.363Z,99212.94
2023-01-19T11:06:49.330Z,99216.11
2023-01-19T11:09:21.042Z,99215.98
2023-01-19T11:11:51.126Z,99214.84
2023-01-19T11:14:23.719Z,99213.92
2023-01-19T11:16:58.895Z,99217.64
2023-01-19T11:19:29.478Z,99214.95
2023-01-19T11:22:15.030Z,99214.86
2023-01-19T11:24:44.063Z,99218.35
2023-01-19T11:27:15.659Z,99214.24
2023-01-19T11:29:49.243Z,99212.97
2023-01-19T11:32:21.804Z,99212.15
2023-01-19T11:34:49.916Z,99211.14
2023-01-19T11:37:27.429Z,99208.94
2023-01-19T11:39:59.867Z,99211.86
2023-01-19T11:42:30.859Z,99207.06
2023-01-19T11:45:01.129Z,99203.02
2023-01-19T11:47:38.072Z,99198.61
2023-01-19T11:50:24.340Z,99200.89
2023-01-19T11:52:58.677Z,99204.69
2023-01-19T11:55:40.607Z,99201.59
2023-01-19T11:58:14.579Z,99198.40
2023-01-19T12:01:24.329Z,99200.41
2023-01-19T12:03:54.953Z,99204.30
2023-01-19T12:06:29.236Z,99197.98
2023-01-19T12:09:12.608Z,99198.09
2023-01-19T12:12:03.752Z,99193.83
2023-01-19T12:14:40.544Z,99192.02
2023-01-19T12:17:16.180Z,99196.63
2023-01-19T12:19:55.025Z,99195.02
2023-01-19T12:22:23.646Z,99200.10
2023-01-19T12:24:57.137Z,99203.58
2023-01-19T12:27:40.450Z,99196.73
2023-01-19T12:30:27.748Z,99197.98
2023-01-19T12:33:34.682Z,99196.54
2023-01-19T12:36:13.690Z,99188.19
2023-01-19T12:38:52.285Z,99188.75
2023-01-19T12:41:32.489Z,99188.80
2023-01-19T12:44:11.757Z,99188.42
2023-01-19T12:46:41.358Z,99188.77
2023-01-19T12:49:30.105Z,99187.89
2023-01-19T12:52:39.975Z,99188.92
2023-01-19T12:55:12.796Z,99191.67
2023-01-19T12:57:39.751Z,99192.70
2023-01-19T13:00:43.244Z,99187.35
2023-01-19T13:03:19.381Z,99187.54
2023-01-19T13:05:54.838Z,99188.09
2023-01-19T13:08:27.656Z,99187.08
2023-01-19T13:11:05.008Z,99189.48
2023-01-19T13:13:48.106Z,99189.63
2023-01-19T13:16:17.783Z,99187.58
2023-01-19T13:19:13.804Z,99189.33
2023-01-19T13:21:44.756Z,99197.26
2023-01-19T13:24:14.447Z,99200.36
2023-01-19T13:26:50.239Z,99205.88
2023-01-19T13:29:20.253Z,99208.47
2023-01-19T13:31:48.586Z,99213.97
2023-01-19T13:34:20.872Z,99214.15
2023-01-19T13:36:54.041Z,99216.21
2023-01-19T13:39:27.349Z,99220.02
2023-01-19T13:41:58.484Z,99218.96
2023-01-19T13:44:29.743Z,99222.55
2023-01-19T13:46:59.199Z,99222.30
2023-01-19T13:49:30.321Z,99225.19
2023-01-19T13:52:20.517Z,99227.05
2023-01-19T13:54:54.841Z,99232.23
2023-01-19T13:57:23.860Z,99230.63
2023-01-19T14:00:11.405Z,99232.30
2023-01-19T14:02:50.088Z,99235.83
2023-01-19T14:05:25.197Z,99237.02
2023-01-19T14:08:08.473Z,99239.26
2023-01-19T14:10:41.481Z,99236.14
2023-01-19T14:13:20.939Z,99237.13
2023-01-19T14:15:49.958Z,99238.77
2023-01-19T14:18:16.827Z,99236.80
2023-01-19T14:21:07.120Z,99234.48
2023-01-19T14:23:47.142Z,99238.08
2023-01-19T14:26:32.800Z,99235.13
2023-01-19T14:29:12.457Z,99239.35
2023-01-19T14:31:46.973Z,99237.02
2023-01-19T14:34:32.384Z,99247.29
2023-01-19T14:37:01.221Z,99250.60
2023-01-19T14:39:32.341Z,99257.91
2023-01-19T14:42:06.163Z,99258.36
2023-01-19T14:44:35.210Z,99254.36
2023-01-19T14:47:05.066Z,99258.81
2023-01-19T14:49:42.620Z,99260.13
2023-01-19T14:52:24.415Z,99264.17
2023-01-19T14:54:54.551Z,99262.88
2023-01-19T14:57:21.558Z,99257.64
2023-01-19T14:59:49.840Z,99257.09
2023-01-19T15:02:20.078Z,99258.68
2023-01-19T15:04:47.536Z,99257.18
2023-01-19T15:07:18.830Z,99256.23
2023-01-19T15:09:49.554Z,99259.32
2023-01-19T15:12:18.185Z,99258.11
2023-01-19T15:14:45.987Z,99258.27
2023-01-19T15:17:24.809Z,99259.45
2023-01-19T15:20:29.513Z,99254.92
2023-01-19T15:22:56.527Z,99258.20
2023-01-19T15:25:26.897Z,99255.61
2023-01-19T15:27:58.101Z,99255.95
2023-01-19T15:33:38.985Z,99252.05
2023-01-19T15:36:29.919Z,99255.75
2023-01-19T15:39:16.632Z,99263.60
2023-01-19T15:42:18.374Z,99255.52
2023-01-19T15:44:45.315Z,99268.36
2023-01-19T15:47:12.341Z,99272.72
2023-01-19T15:49:39.214Z,99272.59
2023-01-19T15:52:06.119Z,99280.57
2023-01-19T15:54:33.022Z,99277.52
2023-01-19T15:56:59.901Z,99284.13
2023-01-19T15:59:26.748Z,99288.88
2023-01-19T16:01:53.947Z,99287.45
2023-01-19T16:04:21.211Z,99288.45
2023-01-19T16:06:49.511Z,99288.77
2023-01-19T16:09:19.484Z,99284.73
2023-01-19T16:11:46.216Z,99290.64
2023-01-19T16:14:13.158Z,99301.30
2023-01-19T16:16:42.268Z,99298.93
2023-01-19T16:19:09.108Z,99303.52
2023-01-19T16:21:36.114Z,99306.79
2023-01-19T16:24:03.100Z,99315.71
2023-01-19T16:26:33.807Z,99319.24
2023-01-19T16:29:07.454Z,99323.65
2023-01-19T16:31:35.675Z,99320.48
2023-01-19T16:34:02.695Z,99323.91
2023-01-19T16:36:32.502Z,99332.73
2023-01-19T16:39:01.205Z,99335.36
2023-01-19T16:41:28.409Z,99338.79
2023-01-19T16:43:57.465Z,99335.34
2023-01-19T16:46:32.061Z,99336.80
2023-01-19T16:49:01.308Z,99338.67
2023-01-19T16:51:29.130Z,99336.27
2023-01-19T16:53:56.098Z,99329.91
2023-01-19T16:56:23.104Z,99334.07
2023-01-19T16:58:54.131Z,99337.82
2023-01-19T17:01:22.266Z,99333.05
2023-01-19T17:03:49.345Z,99341.82
2023-01-19T17:06:19.707Z,99343.13
2023-01-19T17:08:47.434Z,99343.95
2023-01-19T17:11:26.852Z,99346.71
2023-01-19T17:13:57.771Z,99351.20
2023-01-19T17:16:25.866Z,99350.42
2023-01-19T17:18:53.541Z,99349.82
2023-01-19T17:21:20.527Z,99349.98
2023-01-19T17:23:49.615Z,99353.77
2023-01-19T17:26:17.668Z,99352.73
2023-01-19T17:28:45.297Z,99348.60
2023-01-19T17:31:15.534Z,99348.59
2023-01-19T17:33:48.044Z,99354.95
2023-01-19T17:36:24.924Z,99354.09
2023-01-19T17:38:53.678Z,99352.02
2023-01-19T17:41:22.072Z,99355.26
2023-01-19T17:43:51.193Z,99349.95
2023-01-19T17:46:20.478Z,99347.25
2023-01-19T17:48:55.293Z,99350.52
2023-01-19T17:51:23.039Z,99359.60
2023-01-19T17:53:51.016Z,99370.21
2023-01-19T17:56:25.402Z,99368.74
2023-01-19T17:58:52.893Z,99369.85
2023-01-19T18:01:23.240Z,99374.48
2023-01-19T18:03:50.934Z,99378.52
2023-01-19T18:06:18.422Z,99379.66
2023-01-19T18:08:46.995Z,99383.58
2023-01-19T18:11:16.168Z,99391.89
2023-01-19T18:13:45.209Z,99393.64
2023-01-19T18:16:15.382Z,99402.05
2023-01-19T18:18:43.706Z,99407.66
2023-01-19T18:21:13.340Z,99409.84
2023-01-19T18:23:47.753Z,99411.98
2023-01-19T18:26:22.411Z,99413.73
2023-01-19T18:28:49.760Z,99412.21
2023-01-19T18:31:18.471Z,99415.95
2023-01-19T18:33:47.381Z,99414.36
2023-01-19T18:36:15.361Z,99413.48
2023-01-19T18:38:43.058Z,99410.37
2023-01-19T18:41:14.954Z,99410.81
2023-01-19T18:43:46.141Z,99412.27
2023-01-19T18:46:14.217Z,99409.20
2023-01-19T18:48:41.280Z,99416.38
2023-01-19T18:51:14.399Z,99424.27
2023-01-19T18:54:01.742Z,99428.04
2023-01-19T18:56:32.122Z,99428.64
2023-01-19T18:59:11.850Z,99428.70
2023-01-19T19:02:05.708Z,99432.87
2023-01-19T19:08:45.091Z,99432.58
2023-01-19T19:20:03.055Z,99441.14
2023-01-19T19:22:31.097Z,99440.70
2023-01-19T19:24:58.029Z,99441.11
2023-01-19T19:27:24.979Z,99443.23
2023-01-19T19:29:53.024Z,99449.61
2023-01-19T19:32:20.572Z,99448.87
2023-01-19T19:34:49.647Z,99451.40
2023-01-19T19:37:16.636Z,99453.63
2023-01-19T19:39:43.480Z,99454.20
2023-01-19T19:42:10.509Z,99453.14
2023-01-19T19:44:37.539Z,99453.21
2023-01-19T19:47:05.313Z,99451.82
2023-01-19T19:49:32.212Z,99449.39
2023-01-19T19:51:59.007Z,99448.11
2023-01-19T19:54:26.417Z,99453.59
2023-01-19T19:56:53.293Z,99450.41
2023-01-19T19:59:20.114Z,99449.73
2023-01-19T20:01:49.288Z,99449.80
2023-01-19T20:04:19.749Z,99451.05
2023-01-19T20:06:47.993Z,99454.86
2023-01-19T20:09:16.428Z,99458.37
2023-01-19T20:11:46.085Z,99460.58
2023-01-19T20:14:15.612Z,99461.52
2023-01-19T20:16:43.561Z,99462.30
2023-01-19T20:19:10.822Z,99465.83
2023-01-19T20:21:43.425Z,99466.17
2023-01-19T20:24:16.655Z,99465.51
2023-01-19T20:26:47.627Z,99467.88
2023-01-19T20:29:14.883Z,99471.80
2023-01-19T20:31:46.294Z,99467.27
2023-01-19T20:34:16.089Z,99470.86
2023-01-19T20:36:46.365Z,99473.91
2023-01-19T20:39:13.269Z,99475.89
2023-01-19T20:41:44.338Z,99484.00
2023-01-19T20:44:18.653Z,99485.98
2023-01-19T20:46:46.241Z,99488.29
2023-01-19T20:49:13.659Z,99491.59
2023-01-19T20:51:44.740Z,99494.96
2023-01-19T20:54:14.084Z,99498.75
2023-01-19T20:56:41.360Z,99493.65
2023-01-19T20:59:10.234Z,99493.66
2023-01-19T21:01:37.905Z,99492.64
2023-01-19T21:04:05.857Z,99489.20
2023-01-19T21:06:33.195Z,99485.37
2023-01-19T21:09:00.137Z,99487.80
2023-01-19T21:11:27.142Z,99490.84
2023-01-19T21:13:56.714Z,99490.04
2023-01-19T21:16:29.268Z,99490.79
2023-01-19T21:18:56.295Z,99496.55
2023-01-19T21:21:30.787Z,99500.00
2023-01-19T21:24:02.607Z,99504.21
2023-01-19T21:26:30.852Z,99504.77
2023-01-19T21:28:59.217Z,99504.16
2023-01-19T21:31:27.947Z,99510.17
2023-01-19T21:33:58.341Z,99514.80
2023-01-19T21:36:26.498Z,99519.34
2023-01-19T21:38:59.622Z,99521.69
2023-01-19T21:41:27.337Z,99521.80
2023-01-19T21:43:54.141Z,99524.47
2023-01-19T21:46:28.579Z,99528.44
2023-01-19T21:48:57.202Z,99526.92
2023-01-19T21:51:24.209Z,99525.29
2023-01-19T21:53:58.909Z,99528.05
2023-01-19T21:56:30.284Z,99533.20
2023-01-19T21:58:59.028Z,99536.21
2023-01-19T22:01:26.204Z,99541.77
2023-01-19T22:03:55.018Z,99540.16
2023-01-19T22:06:22.786Z,99539.65
2023-01-19T22:08:49.776Z,99539.31
2023-01-19T22:11:19.290Z,99533.75
2023-01-19T22:13:46.509Z,99537.01
2023-01-19T22:16:16.820Z,99539.13
2023-01-19T22:18:45.585Z,99540.63
2023-01-19T22:21:18.494Z,99539.95
2023-01-19T22:23:50.717Z,99544.17
2023-01-19T22:26:18.336Z,99549.46
2023-01-19T22:28:45.333Z,99550.91
2023-01-19T22:31:15.682Z,99552.27
2023-01-19T22:33:43.582Z,99562.58
2023-01-19T22:36:19.439Z,99564.36
2023-01-19T22:38:54.957Z,99559.73
2023-01-19T22:41:25.326Z,99564.02
2023-01-19T22:43:55.898Z,99560.08
2023-01-19T22:46:25.601Z,99551.96
2023-01-19T22:48:53.390Z,99554.84
2023-01-19T22:51:21.838Z,99557.83
2023-01-19T22:53:48.856Z,99560.92
2023-01-19T22:56:30.174Z,99564.23
2023-01-19T22:58:58.075Z,99560.69
2023-01-19T23:01:34.270Z,99560.05
2023-01-19T23:04:03.692Z,99559.50
2023-01-19T23:06:33.051Z,99566.52
2023-01-19T23:09:04.775Z,99565.77
2023-01-19T23:11:36.197Z,99567.79
2023-01-19T23:14:06.374Z,99567.79
2023-01-19T23:16:35.409Z,99568.97
2023-01-19T23:19:03.392Z,99566.72
2023-01-19T23:21:31.620Z,99569.70
2023-01-19T23:24:01.597Z,99569.80
2023-01-19T23:26:30.353Z,99570.59
2023-01-19T23:28:59.591Z,99571.85
2023-01-19T23:31:26.527Z,99569.65
2023-01-19T23:33:59.005Z,99569.38
2023-01-19T23:36:28.990Z,99572.27
2023-01-19T23:38:59.443Z,99564.77
2023-01-19T23:41:28.356Z,99563.27
2023-01-19T23:43:55.529Z,99564.65
2023-01-19T23:46:22.708Z,99560.10
2023-01-19T23:48:49.859Z,99563.14
2023-01-19T23:51:20.081Z,99560.67
2023-01-19T23:53:47.578Z,99560.02
2023-01-19T23:56:17.044Z,99559.60
2023-01-19T23:58:45.793Z,99559.14
